sensor_id;sensor_type;location;lat;lon;timestamp;P1;durP1;ratioP1;P2;durP2;ratioP2
67456;SDS011;54319;52.038;4.640;2023-04-19T00:00:30;8.55;;;6.15;;
67456;SDS011;54319;52.038;4.640;2023-04-19T00:03:00;11.93;;;6.28;;
67456;SDS011;54319;52.038;4.640;2023-04-19T00:05:27;9.13;;;6.18;;
67456;SDS011;54319;52.038;4.640;2023-04-19T00:07:54;10.85;;;6.57;;
67456;SDS011;54319;52.038;4.640;2023-04-19T00:10:20;10.63;;;6.70;;
67456;SDS011;54319;52.038;4.640;2023-04-19T00:12:47;7.90;;;6.22;;
67456;SDS011;54319;52.038;4.640;2023-04-19T00:15:14;8.60;;;5.93;;
67456;SDS011;54319;52.038;4.640;2023-04-19T00:17:40;9.55;;;6.05;;
67456;SDS011;54319;52.038;4.640;2023-04-19T00:20:09;10.18;;;6.22;;
67456;SDS011;54319;52.038;4.640;2023-04-19T00:22:37;9.80;;;6.50;;
67456;SDS011;54319;52.038;4.640;2023-04-19T00:25:04;10.00;;;6.78;;
67456;SDS011;54319;52.038;4.640;2023-04-19T00:27:31;9.30;;;6.63;;
67456;SDS011;54319;52.038;4.640;2023-04-19T00:29:57;10.27;;;6.33;;
67456;SDS011;54319;52.038;4.640;2023-04-19T00:32:24;11.57;;;7.00;;
67456;SDS011;54319;52.038;4.640;2023-04-19T00:34:51;10.23;;;6.72;;
67456;SDS011;54319;52.038;4.640;2023-04-19T00:37:20;12.50;;;7.13;;
67456;SDS011;54319;52.038;4.640;2023-04-19T00:39:47;9.00;;;6.95;;
67456;SDS011;54319;52.038;4.640;2023-04-19T00:42:13;11.70;;;6.82;;
67456;SDS011;54319;52.038;4.640;2023-04-19T00:44:40;9.18;;;6.88;;
67456;SDS011;54319;52.038;4.640;2023-04-19T00:47:07;10.75;;;6.65;;
67456;SDS011;54319;52.038;4.640;2023-04-19T00:49:34;10.00;;;6.57;;
67456;SDS011;54319;52.038;4.640;2023-04-19T00:52:01;9.65;;;6.50;;
67456;SDS011;54319;52.038;4.640;2023-04-19T00:54:29;9.82;;;6.57;;
67456;SDS011;54319;52.038;4.640;2023-04-19T00:56:56;10.30;;;6.68;;
67456;SDS011;54319;52.038;4.640;2023-04-19T00:59:23;9.68;;;6.90;;
67456;SDS011;54319;52.038;4.640;2023-04-19T01:01:50;8.90;;;6.53;;
67456;SDS011;54319;52.038;4.640;2023-04-19T01:04:16;10.35;;;6.82;;
67456;SDS011;54319;52.038;4.640;2023-04-19T01:06:43;12.87;;;7.50;;
67456;SDS011;54319;52.038;4.640;2023-04-19T01:09:10;10.25;;;7.05;;
67456;SDS011;54319;52.038;4.640;2023-04-19T01:11:38;13.48;;;7.00;;
67456;SDS011;54319;52.038;4.640;2023-04-19T01:14:04;12.82;;;7.28;;
67456;SDS011;54319;52.038;4.640;2023-04-19T01:16:31;11.93;;;7.32;;
67456;SDS011;54319;52.038;4.640;2023-04-19T01:18:58;11.32;;;7.10;;
67456;SDS011;54319;52.038;4.640;2023-04-19T01:21:26;11.13;;;6.88;;
67456;SDS011;54319;52.038;4.640;2023-04-19T01:23:55;9.52;;;6.50;;
67456;SDS011;54319;52.038;4.640;2023-04-19T01:26:22;12.02;;;7.05;;
67456;SDS011;54319;52.038;4.640;2023-04-19T01:28:48;10.75;;;6.72;;
67456;SDS011;54319;52.038;4.640;2023-04-19T01:31:15;9.90;;;6.28;;
67456;SDS011;54319;52.038;4.640;2023-04-19T01:33:42;11.00;;;6.80;;
67456;SDS011;54319;52.038;4.640;2023-04-19T01:36:08;9.43;;;6.80;;
67456;SDS011;54319;52.038;4.640;2023-04-19T01:38:35;9.93;;;6.85;;
67456;SDS011;54319;52.038;4.640;2023-04-19T01:41:03;9.32;;;6.85;;
67456;SDS011;54319;52.038;4.640;2023-04-19T01:43:30;10.20;;;7.00;;
67456;SDS011;54319;52.038;4.640;2023-04-19T01:45:57;10.38;;;6.72;;
67456;SDS011;54319;52.038;4.640;2023-04-19T01:48:23;9.30;;;6.88;;
67456;SDS011;54319;52.038;4.640;2023-04-19T01:50:50;11.10;;;7.33;;
67456;SDS011;54319;52.038;4.640;2023-04-19T01:53:17;12.02;;;7.38;;
67456;SDS011;54319;52.038;4.640;2023-04-19T01:55:44;10.68;;;7.38;;
67456;SDS011;54319;52.038;4.640;2023-04-19T01:58:12;10.90;;;7.18;;
67456;SDS011;54319;52.038;4.640;2023-04-19T02:00:39;11.30;;;7.22;;
67456;SDS011;54319;52.038;4.640;2023-04-19T02:03:05;11.15;;;7.50;;
67456;SDS011;54319;52.038;4.640;2023-04-19T02:05:32;12.77;;;7.57;;
67456;SDS011;54319;52.038;4.640;2023-04-19T02:07:59;11.35;;;7.43;;
67456;SDS011;54319;52.038;4.640;2023-04-19T02:10:26;11.57;;;7.78;;
67456;SDS011;54319;52.038;4.640;2023-04-19T02:12:53;12.73;;;7.47;;
67456;SDS011;54319;52.038;4.640;2023-04-19T02:15:21;10.13;;;7.57;;
67456;SDS011;54319;52.038;4.640;2023-04-19T02:17:48;10.95;;;7.43;;
67456;SDS011;54319;52.038;4.640;2023-04-19T02:20:15;10.70;;;7.80;;
67456;SDS011;54319;52.038;4.640;2023-04-19T02:22:42;12.88;;;7.75;;
67456;SDS011;54319;52.038;4.640;2023-04-19T02:27:35;11.55;;;7.00;;
67456;SDS011;54319;52.038;4.640;2023-04-19T02:30:02;12.77;;;8.00;;
67456;SDS011;54319;52.038;4.640;2023-04-19T02:32:31;12.55;;;8.27;;
67456;SDS011;54319;52.038;4.640;2023-04-19T02:34:57;15.10;;;8.23;;
67456;SDS011;54319;52.038;4.640;2023-04-19T02:37:24;13.07;;;8.43;;
67456;SDS011;54319;52.038;4.640;2023-04-19T02:39:50;11.75;;;8.45;;
67456;SDS011;54319;52.038;4.640;2023-04-19T02:42:17;13.23;;;7.80;;
67456;SDS011;54319;52.038;4.640;2023-04-19T02:44:44;11.43;;;8.20;;
67456;SDS011;54319;52.038;4.640;2023-04-19T02:47:10;12.85;;;8.15;;
67456;SDS011;54319;52.038;4.640;2023-04-19T02:49:38;15.35;;;8.23;;
67456;SDS011;54319;52.038;4.640;2023-04-19T02:52:05;14.57;;;8.90;;
67456;SDS011;54319;52.038;4.640;2023-04-19T02:54:32;13.17;;;7.70;;
67456;SDS011;54319;52.038;4.640;2023-04-19T02:56:59;11.13;;;7.70;;
67456;SDS011;54319;52.038;4.640;2023-04-19T02:59:26;11.95;;;8.27;;
67456;SDS011;54319;52.038;4.640;2023-04-19T03:01:52;13.18;;;8.55;;
67456;SDS011;54319;52.038;4.640;2023-04-19T03:04:19;14.43;;;8.52;;
67456;SDS011;54319;52.038;4.640;2023-04-19T03:06:47;9.57;;;7.50;;
67456;SDS011;54319;52.038;4.640;2023-04-19T03:09:14;12.73;;;8.00;;
67456;SDS011;54319;52.038;4.640;2023-04-19T03:11:40;12.02;;;8.10;;
67456;SDS011;54319;52.038;4.640;2023-04-19T03:14:07;13.38;;;8.70;;
67456;SDS011;54319;52.038;4.640;2023-04-19T03:16:33;12.95;;;8.27;;
67456;SDS011;54319;52.038;4.640;2023-04-19T03:19:01;17.17;;;8.40;;
67456;SDS011;54319;52.038;4.640;2023-04-19T03:21:28;13.52;;;8.73;;
67456;SDS011;54319;52.038;4.640;2023-04-19T03:23:57;12.90;;;8.40;;
67456;SDS011;54319;52.038;4.640;2023-04-19T03:26:24;13.68;;;8.23;;
67456;SDS011;54319;52.038;4.640;2023-04-19T03:28:50;13.85;;;8.80;;
67456;SDS011;54319;52.038;4.640;2023-04-19T03:31:17;12.90;;;8.85;;
67456;SDS011;54319;52.038;4.640;2023-04-19T03:33:44;12.57;;;8.52;;
67456;SDS011;54319;52.038;4.640;2023-04-19T03:36:11;11.98;;;8.70;;
67456;SDS011;54319;52.038;4.640;2023-04-19T03:38:37;14.45;;;8.50;;
67456;SDS011;54319;52.038;4.640;2023-04-19T03:41:09;16.50;;;8.93;;
67456;SDS011;54319;52.038;4.640;2023-04-19T03:43:43;11.98;;;7.40;;
67456;SDS011;54319;52.038;4.640;2023-04-19T03:46:10;13.45;;;7.68;;
67456;SDS011;54319;52.038;4.640;2023-04-19T03:48:36;12.07;;;7.63;;
67456;SDS011;54319;52.038;4.640;2023-04-19T03:51:03;13.73;;;8.57;;
67456;SDS011;54319;52.038;4.640;2023-04-19T03:53:30;13.27;;;8.02;;
67456;SDS011;54319;52.038;4.640;2023-04-19T03:55:56;12.82;;;8.18;;
67456;SDS011;54319;52.038;4.640;2023-04-19T03:58:24;12.50;;;7.78;;
67456;SDS011;54319;52.038;4.640;2023-04-19T04:00:51;14.10;;;7.90;;
67456;SDS011;54319;52.038;4.640;2023-04-19T04:03:17;11.82;;;8.10;;
67456;SDS011;54319;52.038;4.640;2023-04-19T04:05:44;13.95;;;8.85;;
67456;SDS011;54319;52.038;4.640;2023-04-19T04:08:12;11.93;;;8.27;;
67456;SDS011;54319;52.038;4.640;2023-04-19T04:10:38;13.40;;;7.50;;
67456;SDS011;54319;52.038;4.640;2023-04-19T04:13:05;13.50;;;8.13;;
67456;SDS011;54319;52.038;4.640;2023-04-19T04:15:33;14.85;;;8.35;;
67456;SDS011;54319;52.038;4.640;2023-04-19T04:18:00;13.95;;;8.43;;
67456;SDS011;54319;52.038;4.640;2023-04-19T04:20:26;11.32;;;7.25;;
67456;SDS011;54319;52.038;4.640;2023-04-19T04:22:53;10.98;;;8.15;;
67456;SDS011;54319;52.038;4.640;2023-04-19T04:25:20;10.50;;;7.72;;
67456;SDS011;54319;52.038;4.640;2023-04-19T04:27:49;16.53;;;8.17;;
67456;SDS011;54319;52.038;4.640;2023-04-19T04:30:16;10.73;;;7.95;;
67456;SDS011;54319;52.038;4.640;2023-04-19T04:32:44;10.53;;;6.77;;
67456;SDS011;54319;52.038;4.640;2023-04-19T04:35:11;12.05;;;7.45;;
67456;SDS011;54319;52.038;4.640;2023-04-19T04:37:38;10.47;;;7.37;;
67456;SDS011;54319;52.038;4.640;2023-04-19T04:40:05;11.13;;;7.57;;
67456;SDS011;54319;52.038;4.640;2023-04-19T04:42:33;13.15;;;6.88;;
67456;SDS011;54319;52.038;4.640;2023-04-19T04:44:59;13.15;;;8.18;;
67456;SDS011;54319;52.038;4.640;2023-04-19T04:47:29;11.85;;;7.30;;
67456;SDS011;54319;52.038;4.640;2023-04-19T04:49:58;11.82;;;6.82;;
67456;SDS011;54319;52.038;4.640;2023-04-19T04:52:26;9.60;;;6.78;;
67456;SDS011;54319;52.038;4.640;2023-04-19T04:54:53;11.45;;;7.05;;
67456;SDS011;54319;52.038;4.640;2023-04-19T04:57:20;12.25;;;7.15;;
67456;SDS011;54319;52.038;4.640;2023-04-19T04:59:46;14.95;;;8.15;;
67456;SDS011;54319;52.038;4.640;2023-04-19T05:02:14;10.35;;;7.30;;
67456;SDS011;54319;52.038;4.640;2023-04-19T05:07:08;13.00;;;6.97;;
67456;SDS011;54319;52.038;4.640;2023-04-19T05:09:35;13.65;;;7.45;;
67456;SDS011;54319;52.038;4.640;2023-04-19T05:12:01;11.07;;;7.10;;
67456;SDS011;54319;52.038;4.640;2023-04-19T05:14:28;10.27;;;6.50;;
67456;SDS011;54319;52.038;4.640;2023-04-19T05:16:55;13.10;;;7.43;;
67456;SDS011;54319;52.038;4.640;2023-04-19T05:19:21;10.63;;;6.88;;
67456;SDS011;54319;52.038;4.640;2023-04-19T05:21:48;12.07;;;7.00;;
67456;SDS011;54319;52.038;4.640;2023-04-19T05:24:16;13.82;;;7.25;;
67456;SDS011;54319;52.038;4.640;2023-04-19T05:26:43;10.95;;;7.03;;
67456;SDS011;54319;52.038;4.640;2023-04-19T05:29:09;13.35;;;7.85;;
67456;SDS011;54319;52.038;4.640;2023-04-19T05:31:36;9.98;;;7.07;;
67456;SDS011;54319;52.038;4.640;2023-04-19T05:34:02;8.73;;;6.75;;
67456;SDS011;54319;52.038;4.640;2023-04-19T05:36:29;10.27;;;6.43;;
67456;SDS011;54319;52.038;4.640;2023-04-19T05:38:56;9.03;;;6.47;;
67456;SDS011;54319;52.038;4.640;2023-04-19T05:41:24;11.45;;;7.10;;
67456;SDS011;54319;52.038;4.640;2023-04-19T05:43:51;10.95;;;6.72;;
67456;SDS011;54319;52.038;4.640;2023-04-19T05:46:17;10.63;;;6.90;;
67456;SDS011;54319;52.038;4.640;2023-04-19T05:48:44;10.15;;;6.97;;
67456;SDS011;54319;52.038;4.640;2023-04-19T05:51:12;9.93;;;6.80;;
67456;SDS011;54319;52.038;4.640;2023-04-19T05:53:41;10.20;;;6.60;;
67456;SDS011;54319;52.038;4.640;2023-04-19T05:56:08;10.98;;;6.97;;
67456;SDS011;54319;52.038;4.640;2023-04-19T05:58:36;12.88;;;6.75;;
67456;SDS011;54319;52.038;4.640;2023-04-19T06:01:03;10.25;;;6.53;;
67456;SDS011;54319;52.038;4.640;2023-04-19T06:03:30;12.00;;;6.22;;
67456;SDS011;54319;52.038;4.640;2023-04-19T06:05:58;10.57;;;6.95;;
67456;SDS011;54319;52.038;4.640;2023-04-19T06:08:25;13.50;;;6.87;;
67456;SDS011;54319;52.038;4.640;2023-04-19T06:10:51;10.85;;;6.75;;
67456;SDS011;54319;52.038;4.640;2023-04-19T06:13:20;9.25;;;6.85;;
67456;SDS011;54319;52.038;4.640;2023-04-19T06:15:48;11.15;;;6.70;;
67456;SDS011;54319;52.038;4.640;2023-04-19T06:18:14;11.02;;;6.55;;
67456;SDS011;54319;52.038;4.640;2023-04-19T06:20:41;12.30;;;7.25;;
67456;SDS011;54319;52.038;4.640;2023-04-19T06:23:07;10.93;;;6.78;;
67456;SDS011;54319;52.038;4.640;2023-04-19T06:25:36;8.93;;;6.22;;
67456;SDS011;54319;52.038;4.640;2023-04-19T06:28:03;11.40;;;6.65;;
67456;SDS011;54319;52.038;4.640;2023-04-19T06:30:30;13.02;;;6.93;;
67456;SDS011;54319;52.038;4.640;2023-04-19T06:32:58;10.77;;;6.50;;
67456;SDS011;54319;52.038;4.640;2023-04-19T06:35:24;9.95;;;6.47;;
67456;SDS011;54319;52.038;4.640;2023-04-19T06:37:51;12.05;;;6.50;;
67456;SDS011;54319;52.038;4.640;2023-04-19T06:40:18;11.35;;;6.38;;
67456;SDS011;54319;52.038;4.640;2023-04-19T06:42:44;9.27;;;6.23;;
67456;SDS011;54319;52.038;4.640;2023-04-19T06:45:11;11.48;;;6.35;;
67456;SDS011;54319;52.038;4.640;2023-04-19T06:50:08;9.83;;;6.23;;
67456;SDS011;54319;52.038;4.640;2023-04-19T06:52:35;9.48;;;5.85;;
67456;SDS011;54319;52.038;4.640;2023-04-19T06:55:02;8.53;;;5.90;;
67456;SDS011;54319;52.038;4.640;2023-04-19T06:57:29;7.05;;;5.20;;
67456;SDS011;54319;52.038;4.640;2023-04-19T06:59:56;8.93;;;5.72;;
67456;SDS011;54319;52.038;4.640;2023-04-19T07:02:23;9.57;;;5.60;;
67456;SDS011;54319;52.038;4.640;2023-04-19T07:04:49;9.27;;;5.23;;
67456;SDS011;54319;52.038;4.640;2023-04-19T07:07:17;10.73;;;5.78;;
67456;SDS011;54319;52.038;4.640;2023-04-19T07:09:44;10.07;;;5.38;;
67456;SDS011;54319;52.038;4.640;2023-04-19T07:12:10;7.18;;;5.22;;
67456;SDS011;54319;52.038;4.640;2023-04-19T07:14:37;8.27;;;5.57;;
67456;SDS011;54319;52.038;4.640;2023-04-19T07:17:04;10.70;;;5.18;;
67456;SDS011;54319;52.038;4.640;2023-04-19T07:19:30;9.55;;;5.57;;
67456;SDS011;54319;52.038;4.640;2023-04-19T07:21:59;7.55;;;5.70;;
67456;SDS011;54319;52.038;4.640;2023-04-19T07:24:28;8.75;;;5.07;;
67456;SDS011;54319;52.038;4.640;2023-04-19T07:26:56;7.90;;;5.05;;
67456;SDS011;54319;52.038;4.640;2023-04-19T07:29:22;6.93;;;4.97;;
67456;SDS011;54319;52.038;4.640;2023-04-19T07:31:49;7.63;;;5.32;;
67456;SDS011;54319;52.038;4.640;2023-04-19T07:34:19;7.60;;;5.20;;
67456;SDS011;54319;52.038;4.640;2023-04-19T07:36:45;6.40;;;4.93;;
67456;SDS011;54319;52.038;4.640;2023-04-19T07:39:12;8.07;;;4.93;;
67456;SDS011;54319;52.038;4.640;2023-04-19T07:41:40;9.75;;;4.75;;
67456;SDS011;54319;52.038;4.640;2023-04-19T07:44:07;7.95;;;4.72;;
67456;SDS011;54319;52.038;4.640;2023-04-19T07:46:33;6.38;;;4.45;;
67456;SDS011;54319;52.038;4.640;2023-04-19T07:49:00;8.52;;;4.75;;
67456;SDS011;54319;52.038;4.640;2023-04-19T07:51:27;6.18;;;4.15;;
67456;SDS011;54319;52.038;4.640;2023-04-19T07:53:53;6.07;;;4.38;;
67456;SDS011;54319;52.038;4.640;2023-04-19T07:56:20;6.30;;;4.50;;
67456;SDS011;54319;52.038;4.640;2023-04-19T07:58:48;8.82;;;4.90;;
67456;SDS011;54319;52.038;4.640;2023-04-19T08:01:15;7.05;;;4.50;;
67456;SDS011;54319;52.038;4.640;2023-04-19T08:03:42;7.75;;;4.35;;
67456;SDS011;54319;52.038;4.640;2023-04-19T08:06:08;8.43;;;4.60;;
67456;SDS011;54319;52.038;4.640;2023-04-19T08:08:36;7.72;;;4.75;;
67456;SDS011;54319;52.038;4.640;2023-04-19T08:11:03;5.55;;;4.10;;
67456;SDS011;54319;52.038;4.640;2023-04-19T08:13:30;7.13;;;4.63;;
67456;SDS011;54319;52.038;4.640;2023-04-19T08:15:58;10.52;;;4.43;;
67456;SDS011;54319;52.038;4.640;2023-04-19T08:18:25;8.18;;;4.28;;
67456;SDS011;54319;52.038;4.640;2023-04-19T08:20:51;6.65;;;4.47;;
67456;SDS011;54319;52.038;4.640;2023-04-19T08:23:18;6.40;;;4.72;;
67456;SDS011;54319;52.038;4.640;2023-04-19T08:25:45;6.32;;;4.03;;
67456;SDS011;54319;52.038;4.640;2023-04-19T08:28:12;6.13;;;4.22;;
67456;SDS011;54319;52.038;4.640;2023-04-19T08:30:39;5.10;;;3.80;;
67456;SDS011;54319;52.038;4.640;2023-04-19T08:33:07;9.07;;;3.65;;
67456;SDS011;54319;52.038;4.640;2023-04-19T08:35:34;4.30;;;3.00;;
67456;SDS011;54319;52.038;4.640;2023-04-19T08:38:01;4.65;;;3.40;;
67456;SDS011;54319;52.038;4.640;2023-04-19T08:40:29;7.53;;;3.65;;
67456;SDS011;54319;52.038;4.640;2023-04-19T08:42:55;4.75;;;3.15;;
67456;SDS011;54319;52.038;4.640;2023-04-19T08:45:22;4.25;;;2.90;;
67456;SDS011;54319;52.038;4.640;2023-04-19T08:47:53;4.75;;;3.00;;
67456;SDS011;54319;52.038;4.640;2023-04-19T08:50:21;4.65;;;2.95;;
67456;SDS011;54319;52.038;4.640;2023-04-19T08:52:48;5.28;;;3.17;;
67456;SDS011;54319;52.038;4.640;2023-04-19T08:55:15;4.40;;;2.97;;
67456;SDS011;54319;52.038;4.640;2023-04-19T09:00:09;4.85;;;2.83;;
67456;SDS011;54319;52.038;4.640;2023-04-19T09:05:10;4.53;;;3.28;;
67456;SDS011;54319;52.038;4.640;2023-04-19T09:07:39;5.95;;;2.92;;
67456;SDS011;54319;52.038;4.640;2023-04-19T09:10:07;5.32;;;3.00;;
67456;SDS011;54319;52.038;4.640;2023-04-19T09:12:34;4.85;;;2.70;;
67456;SDS011;54319;52.038;4.640;2023-04-19T09:15:03;5.93;;;2.92;;
67456;SDS011;54319;52.038;4.640;2023-04-19T09:17:33;4.15;;;2.70;;
67456;SDS011;54319;52.038;4.640;2023-04-19T09:20:00;5.30;;;2.72;;
67456;SDS011;54319;52.038;4.640;2023-04-19T09:24:56;4.28;;;2.78;;
67456;SDS011;54319;52.038;4.640;2023-04-19T09:27:24;5.55;;;3.05;;
67456;SDS011;54319;52.038;4.640;2023-04-19T09:29:53;11.55;;;3.25;;
67456;SDS011;54319;52.038;4.640;2023-04-19T09:34:50;3.08;;;2.50;;
67456;SDS011;54319;52.038;4.640;2023-04-19T09:37:18;10.93;;;2.80;;
67456;SDS011;54319;52.038;4.640;2023-04-19T09:39:45;4.28;;;2.72;;
67456;SDS011;54319;52.038;4.640;2023-04-19T09:42:13;3.65;;;2.70;;
67456;SDS011;54319;52.038;4.640;2023-04-19T09:44:41;3.75;;;2.50;;
67456;SDS011;54319;52.038;4.640;2023-04-19T09:47:20;3.55;;;2.30;;
67456;SDS011;54319;52.038;4.640;2023-04-19T09:50:02;4.95;;;2.60;;
67456;SDS011;54319;52.038;4.640;2023-04-19T09:52:31;3.55;;;2.40;;
67456;SDS011;54319;52.038;4.640;2023-04-19T09:54:59;5.43;;;2.20;;
67456;SDS011;54319;52.038;4.640;2023-04-19T09:57:27;3.83;;;2.50;;
67456;SDS011;54319;52.038;4.640;2023-04-19T09:59:54;3.08;;;2.00;;
67456;SDS011;54319;52.038;4.640;2023-04-19T10:02:21;5.25;;;2.25;;
67456;SDS011;54319;52.038;4.640;2023-04-19T10:04:49;2.58;;;2.00;;
67456;SDS011;54319;52.038;4.640;2023-04-19T10:07:17;3.22;;;2.05;;
67456;SDS011;54319;52.038;4.640;2023-04-19T10:09:44;2.92;;;1.90;;
67456;SDS011;54319;52.038;4.640;2023-04-19T10:12:15;2.33;;;1.75;;
67456;SDS011;54319;52.038;4.640;2023-04-19T10:14:43;2.15;;;1.90;;
67456;SDS011;54319;52.038;4.640;2023-04-19T10:17:10;3.50;;;2.13;;
67456;SDS011;54319;52.038;4.640;2023-04-19T10:19:37;2.50;;;1.98;;
67456;SDS011;54319;52.038;4.640;2023-04-19T10:22:06;4.65;;;1.70;;
67456;SDS011;54319;52.038;4.640;2023-04-19T10:24:33;2.83;;;2.00;;
67456;SDS011;54319;52.038;4.640;2023-04-19T10:27:07;2.58;;;1.70;;
67456;SDS011;54319;52.038;4.640;2023-04-19T10:29:56;2.45;;;1.55;;
67456;SDS011;54319;52.038;4.640;2023-04-19T10:32:25;2.15;;;1.60;;
67456;SDS011;54319;52.038;4.640;2023-04-19T10:34:53;4.05;;;1.58;;
67456;SDS011;54319;52.038;4.640;2023-04-19T10:37:20;2.80;;;1.70;;
67456;SDS011;54319;52.038;4.640;2023-04-19T10:39:49;2.25;;;1.70;;
67456;SDS011;54319;52.038;4.640;2023-04-19T10:42:16;2.30;;;1.67;;
67456;SDS011;54319;52.038;4.640;2023-04-19T10:47:44;1.60;;;1.50;;
67456;SDS011;54319;52.038;4.640;2023-04-19T10:50:10;1.50;;;1.40;;
67456;SDS011;54319;52.038;4.640;2023-04-19T10:52:37;2.35;;;1.75;;
67456;SDS011;54319;52.038;4.640;2023-04-19T10:55:04;3.72;;;1.92;;
67456;SDS011;54319;52.038;4.640;2023-04-19T11:00:16;2.92;;;1.70;;
67456;SDS011;54319;52.038;4.640;2023-04-19T11:02:45;2.58;;;1.70;;
67456;SDS011;54319;52.038;4.640;2023-04-19T11:05:12;2.72;;;1.90;;
67456;SDS011;54319;52.038;4.640;2023-04-19T11:07:39;2.63;;;1.70;;
67456;SDS011;54319;52.038;4.640;2023-04-19T11:10:08;2.65;;;1.88;;
67456;SDS011;54319;52.038;4.640;2023-04-19T11:12:36;2.95;;;1.65;;
67456;SDS011;54319;52.038;4.640;2023-04-19T11:15:07;3.72;;;1.70;;
67456;SDS011;54319;52.038;4.640;2023-04-19T11:17:35;3.03;;;1.60;;
67456;SDS011;54319;52.038;4.640;2023-04-19T11:20:05;2.05;;;1.60;;
67456;SDS011;54319;52.038;4.640;2023-04-19T11:22:34;2.22;;;1.80;;
67456;SDS011;54319;52.038;4.640;2023-04-19T11:25:05;2.45;;;1.80;;
67456;SDS011;54319;52.038;4.640;2023-04-19T11:27:33;2.50;;;1.65;;
67456;SDS011;54319;52.038;4.640;2023-04-19T11:30:03;2.92;;;1.67;;
67456;SDS011;54319;52.038;4.640;2023-04-19T11:32:31;3.17;;;1.85;;
67456;SDS011;54319;52.038;4.640;2023-04-19T11:35:02;3.20;;;1.80;;
67456;SDS011;54319;52.038;4.640;2023-04-19T11:37:33;1.58;;;1.48;;
67456;SDS011;54319;52.038;4.640;2023-04-19T11:42:26;1.50;;;1.40;;
67456;SDS011;54319;52.038;4.640;2023-04-19T11:44:53;3.08;;;1.88;;
67456;SDS011;54319;52.038;4.640;2023-04-19T11:47:21;4.00;;;1.65;;
67456;SDS011;54319;52.038;4.640;2023-04-19T11:49:48;2.38;;;1.70;;
67456;SDS011;54319;52.038;4.640;2023-04-19T11:52:20;3.00;;;1.67;;
67456;SDS011;54319;52.038;4.640;2023-04-19T11:54:48;1.90;;;1.65;;
67456;SDS011;54319;52.038;4.640;2023-04-19T11:57:25;2.13;;;1.45;;
67456;SDS011;54319;52.038;4.640;2023-04-19T12:00:03;1.38;;;1.27;;
67456;SDS011;54319;52.038;4.640;2023-04-19T12:02:36;3.45;;;1.70;;
67456;SDS011;54319;52.038;4.640;2023-04-19T12:05:10;2.97;;;1.52;;
67456;SDS011;54319;52.038;4.640;2023-04-19T12:10:25;2.97;;;1.77;;
67456;SDS011;54319;52.038;4.640;2023-04-19T12:12:52;1.92;;;1.73;;
67456;SDS011;54319;52.038;4.640;2023-04-19T12:15:18;2.35;;;1.58;;
67456;SDS011;54319;52.038;4.640;2023-04-19T12:17:55;3.50;;;1.88;;
67456;SDS011;54319;52.038;4.640;2023-04-19T12:20:29;6.28;;;1.92;;
67456;SDS011;54319;52.038;4.640;2023-04-19T12:22:56;2.38;;;1.70;;
67456;SDS011;54319;52.038;4.640;2023-04-19T12:25:28;2.28;;;1.90;;
67456;SDS011;54319;52.038;4.640;2023-04-19T12:27:55;2.60;;;1.60;;
67456;SDS011;54319;52.038;4.640;2023-04-19T12:30:22;5.82;;;1.90;;
67456;SDS011;54319;52.038;4.640;2023-04-19T12:32:49;3.53;;;1.80;;
67456;SDS011;54319;52.038;4.640;2023-04-19T12:35:16;2.40;;;1.70;;
67456;SDS011;54319;52.038;4.640;2023-04-19T12:37:43;2.50;;;1.90;;
67456;SDS011;54319;52.038;4.640;2023-04-19T12:40:12;2.17;;;1.80;;
67456;SDS011;54319;52.038;4.640;2023-04-19T12:42:39;2.80;;;1.90;;
67456;SDS011;54319;52.038;4.640;2023-04-19T12:45:06;2.78;;;1.90;;
67456;SDS011;54319;52.038;4.640;2023-04-19T12:47:34;4.78;;;2.10;;
67456;SDS011;54319;52.038;4.640;2023-04-19T12:50:00;3.13;;;2.08;;
67456;SDS011;54319;52.038;4.640;2023-04-19T12:52:27;3.50;;;1.90;;
67456;SDS011;54319;52.038;4.640;2023-04-19T12:54:54;5.47;;;2.10;;
67456;SDS011;54319;52.038;4.640;2023-04-19T12:57:23;2.88;;;1.73;;
67456;SDS011;54319;52.038;4.640;2023-04-19T12:59:49;4.38;;;2.00;;
67456;SDS011;54319;52.038;4.640;2023-04-19T13:02:16;3.88;;;1.77;;
67456;SDS011;54319;52.038;4.640;2023-04-19T13:04:43;2.97;;;1.90;;
67456;SDS011;54319;52.038;4.640;2023-04-19T13:07:09;2.92;;;1.70;;
67456;SDS011;54319;52.038;4.640;2023-04-19T13:09:36;3.20;;;1.80;;
67456;SDS011;54319;52.038;4.640;2023-04-19T13:12:03;2.67;;;1.90;;
67456;SDS011;54319;52.038;4.640;2023-04-19T13:14:32;5.32;;;2.05;;
67456;SDS011;54319;52.038;4.640;2023-04-19T13:16:58;2.92;;;1.98;;
67456;SDS011;54319;52.038;4.640;2023-04-19T13:19:25;8.38;;;2.13;;
67456;SDS011;54319;52.038;4.640;2023-04-19T13:21:52;3.53;;;2.15;;
67456;SDS011;54319;52.038;4.640;2023-04-19T13:24:18;2.20;;;1.92;;
67456;SDS011;54319;52.038;4.640;2023-04-19T13:26:45;6.25;;;2.30;;
67456;SDS011;54319;52.038;4.640;2023-04-19T13:29:12;3.65;;;2.38;;
67456;SDS011;54319;52.038;4.640;2023-04-19T13:31:40;3.67;;;2.20;;
67456;SDS011;54319;52.038;4.640;2023-04-19T13:34:07;6.70;;;2.60;;
67456;SDS011;54319;52.038;4.640;2023-04-19T13:36:34;2.72;;;2.20;;
67456;SDS011;54319;52.038;4.640;2023-04-19T13:39:01;6.70;;;2.60;;
67456;SDS011;54319;52.038;4.640;2023-04-19T13:41:28;3.58;;;2.45;;
67456;SDS011;54319;52.038;4.640;2023-04-19T13:43:55;7.45;;;2.70;;
67456;SDS011;54319;52.038;4.640;2023-04-19T13:46:22;3.95;;;2.67;;
67456;SDS011;54319;52.038;4.640;2023-04-19T13:48:50;5.82;;;2.92;;
67456;SDS011;54319;52.038;4.640;2023-04-19T13:51:17;2.80;;;2.55;;
67456;SDS011;54319;52.038;4.640;2023-04-19T13:53:44;6.97;;;2.70;;
67456;SDS011;54319;52.038;4.640;2023-04-19T13:56:11;3.83;;;2.38;;
67456;SDS011;54319;52.038;4.640;2023-04-19T13:58:37;3.15;;;2.65;;
67456;SDS011;54319;52.038;4.640;2023-04-19T14:01:04;3.85;;;2.80;;
67456;SDS011;54319;52.038;4.640;2023-04-19T14:03:31;3.88;;;2.70;;
67456;SDS011;54319;52.038;4.640;2023-04-19T14:05:59;3.05;;;2.60;;
67456;SDS011;54319;52.038;4.640;2023-04-19T14:08:25;5.60;;;2.78;;
67456;SDS011;54319;52.038;4.640;2023-04-19T14:10:52;4.18;;;2.50;;
67456;SDS011;54319;52.038;4.640;2023-04-19T14:13:19;5.00;;;2.30;;
67456;SDS011;54319;52.038;4.640;2023-04-19T14:15:45;2.63;;;2.05;;
67456;SDS011;54319;52.038;4.640;2023-04-19T14:18:12;6.13;;;2.42;;
67456;SDS011;54319;52.038;4.640;2023-04-19T14:20:38;4.70;;;2.40;;
67456;SDS011;54319;52.038;4.640;2023-04-19T14:23:06;4.60;;;2.40;;
67456;SDS011;54319;52.038;4.640;2023-04-19T14:25:34;5.78;;;2.33;;
67456;SDS011;54319;52.038;4.640;2023-04-19T14:28:01;3.03;;;2.20;;
67456;SDS011;54319;52.038;4.640;2023-04-19T14:30:27;4.47;;;2.30;;
67456;SDS011;54319;52.038;4.640;2023-04-19T14:32:54;3.63;;;2.08;;
67456;SDS011;54319;52.038;4.640;2023-04-19T14:35:22;4.57;;;2.20;;
67456;SDS011;54319;52.038;4.640;2023-04-19T14:37:48;3.42;;;2.30;;
67456;SDS011;54319;52.038;4.640;2023-04-19T14:40:16;5.13;;;2.10;;
67456;SDS011;54319;52.038;4.640;2023-04-19T14:42:44;5.85;;;2.55;;
67456;SDS011;54319;52.038;4.640;2023-04-19T14:45:11;2.90;;;2.10;;
67456;SDS011;54319;52.038;4.640;2023-04-19T14:47:37;4.45;;;2.35;;
67456;SDS011;54319;52.038;4.640;2023-04-19T14:50:05;3.20;;;2.17;;
67456;SDS011;54319;52.038;4.640;2023-04-19T14:52:32;2.75;;;2.17;;
67456;SDS011;54319;52.038;4.640;2023-04-19T14:54:58;5.55;;;2.65;;
67456;SDS011;54319;52.038;4.640;2023-04-19T14:57:26;3.60;;;2.40;;
67456;SDS011;54319;52.038;4.640;2023-04-19T14:59:53;6.82;;;2.33;;
67456;SDS011;54319;52.038;4.640;2023-04-19T15:02:22;2.88;;;2.25;;
67456;SDS011;54319;52.038;4.640;2023-04-19T15:04:48;3.70;;;2.00;;
67456;SDS011;54319;52.038;4.640;2023-04-19T15:07:15;6.15;;;2.40;;
67456;SDS011;54319;52.038;4.640;2023-04-19T15:09:42;2.78;;;2.10;;
67456;SDS011;54319;52.038;4.640;2023-04-19T15:12:08;3.63;;;2.20;;